ウィニペグ の空港の天気 - METARとTAF

ウィニペグ国際空港 ( CYWG / YWG ) - カナダ マニトバ州ウィニペグ
飛行場実況気象(Metar)
観測時間07/17 04:00 CDT (07/17 09:00 UTC)
風向・風速不定 1m/s
視程10km以上
天気現象
少しの雲 雲底高度 6100m
気温9℃
湿度100%
気圧1021.3hPa
METARCYWG 170900Z VRB02KT 15SM FEW200 09/09 A3014 RMK CI1 SLP213
過去の天気等 Google飛行場航空写真 Wunderground天気予報

過去48時間のMETAR

飛行場予報(TAF)
発表時間: 7/17 00:38 CDT (7/17 05:38 UTC)
予報対象時間: 17日1時 CDT ~ 18日1時 CDT
風向・風速西北西 2m/s
視程10km以上
なし
17日2時 CDT ~ 17日7時 CDT に一時的に
視程8850m
天気現象もや
17日3時 CDT から 確率 30% で
視程800m
天気現象
全天を覆う雲 鉛直視程 120m
17日7時 CDT から
風向・風速西南西 2m/s
視程10km以上
なし
17日10時 CDT から
風向・風速西南西 3m/s
視程10km以上
少しの雲 雲底高度 460m
17日12時 CDT から
風向・風速南西 4m/s
視程10km以上
少しの雲 雲底高度 760m
17日14時 CDT から
風向・風速南西 4m/s
視程10km以上
なし
17日21時 CDT ~ 17日23時 CDT に徐々に
風向・風速南 3m/s
TAF CYWG 170538Z 1706/1806 30003KT P6SM SKC
TEMPO 1707/1712 11/2SM BR
PROB30 1708/1710 1/2SM FG VV004
FM171200 24003KT P6SM SKC
FM171500 24006KT P6SM FEW015
FM171700 23008KT P6SM FEW025
FM171900 22008KT P6SM SKC
BECMG 1802/1804 17005KT RMK NXT FCST BY 171200Z